Time;durP1;ratioP1;P1;durP2;ratioP2;P2;SDS_P1;SDS_P2;PMS_P1;PMS_P2;Temp;Humidity;BMP_temperature;BMP_pressure;BME280_temperature;BME280_humidity;BME280_pressure;Samples;Min_cycle;Max_cycle;Signal;HPM_P1;HPM_P2
2021/12/19 00:00:16;;;;;;;4.20;1.88;;;;;;;-0.62;100.00;98209.72;5070705;28;20143;-66
2021/12/19 00:03:29;;;;;;;5.18;2.10;;;;;;;-0.87;100.00;98206.25;5080441;28;20047;-66
2021/12/19 00:09:11;;;;;;;2.10;1.15;;;;;;;-1.01;100.00;98197.63;5063333;28;20051;-63
2021/12/19 00:11:59;;;;;;;2.78;1.48;;;;;;;-1.17;100.00;98166.41;5088782;28;20065;-67
2021/12/19 00:14:44;;;;;;;2.38;1.50;;;;;;;-1.18;100.00;98155.13;5063183;28;20125;-64
2021/12/19 00:17:29;;;;;;;5.32;1.80;;;;;;;-1.17;100.00;98148.19;5070938;28;20131;-64
2021/12/19 00:20:13;;;;;;;1.85;1.10;;;;;;;-1.14;100.00;98124.81;5064057;28;20722;-64
2021/12/19 00:22:57;;;;;;;4.70;1.75;;;;;;;-1.06;100.00;98116.13;5074426;28;20059;-63
2021/12/19 00:25:44;;;;;;;2.45;1.20;;;;;;;-1.04;100.00;98110.91;5072318;28;20104;-65
2021/12/19 00:28:29;;;;;;;2.60;1.40;;;;;;;-1.04;100.00;98084.91;5082282;28;20133;-64
2021/12/19 00:31:14;;;;;;;2.38;1.15;;;;;;;-1.01;100.00;98098.78;5074932;28;20078;-66
2021/12/19 00:33:59;;;;;;;1.85;1.10;;;;;;;-1.17;100.00;98067.59;5056190;28;20409;-65
2021/12/19 00:36:44;;;;;;;2.63;1.25;;;;;;;-0.94;100.00;98063.22;5035163;28;20118;-67
2021/12/19 00:39:30;;;;;;;2.60;1.38;;;;;;;-0.85;100.00;98047.59;5090389;28;20595;-63
2021/12/19 00:42:34;;;;;;;3.20;1.35;;;;;;;-0.60;100.00;98041.44;5080538;28;20060;-64
2021/12/19 00:45:27;;;;;;;2.63;1.45;;;;;;;-0.77;100.00;98027.63;5079492;28;20056;-65
2021/12/19 00:48:12;;;;;;;1.77;1.10;;;;;;;-0.71;100.00;98025.88;5084491;28;20071;-64
2021/12/19 00:50:57;;;;;;;2.13;1.00;;;;;;;-0.83;100.00;98030.25;5097230;28;20054;-63
2021/12/19 00:53:43;;;;;;;2.38;1.00;;;;;;;-0.96;100.00;98011.22;5072098;28;20077;-63
2021/12/19 00:56:27;;;;;;;2.35;1.02;;;;;;;-0.97;100.00;98013.81;5070740;28;20534;-64
2021/12/19 00:59:13;;;;;;;2.10;1.00;;;;;;;-0.98;100.00;97994.75;5083302;28;20619;-66
2021/12/19 01:01:57;;;;;;;1.65;1.00;;;;;;;-0.91;100.00;97993.00;5084698;28;20419;-63
2021/12/19 01:04:45;;;;;;;1.50;0.88;;;;;;;-0.95;100.00;97988.69;5088620;28;20052;-64
2021/12/19 01:07:30;;;;;;;6.63;1.25;;;;;;;-1.10;100.00;97957.53;5088588;28;20093;-63
2021/12/19 01:10:15;;;;;;;;;;;;;;;-0.92;100.00;97973.06;5083985;28;20055;-62
2021/12/19 01:13:02;;;;;;;1.67;1.15;;;;;;;-1.01;100.00;97952.28;5073405;28;19927;-64
2021/12/19 01:15:47;;;;;;;2.28;1.10;;;;;;;-1.09;100.00;97939.34;5049252;28;20052;-62
2021/12/19 01:18:32;;;;;;;3.55;0.93;;;;;;;-1.12;100.00;97926.34;5031954;28;20094;-68
2021/12/19 01:21:17;;;;;;;0.90;0.63;;;;;;;-1.22;100.00;97908.19;5047515;28;20075;-64
2021/12/19 01:24:03;;;;;;;1.60;0.82;;;;;;;-1.12;100.00;97894.25;5044917;28;20052;-62
2021/12/19 01:26:48;;;;;;;2.72;1.13;;;;;;;-1.02;100.00;97883.81;5047818;28;20539;-62
2021/12/19 01:29:32;;;;;;;1.63;0.70;;;;;;;-1.09;100.00;97881.25;5064773;28;20117;-63
2021/12/19 01:32:17;;;;;;;1.40;0.60;;;;;;;-1.16;100.00;97879.56;5047721;28;20127;-65
2021/12/19 01:35:02;;;;;;;2.35;0.80;;;;;;;-1.11;100.00;97868.25;5037042;28;20067;-62
2021/12/19 01:37:48;;;;;;;1.50;0.98;;;;;;;-1.11;100.00;97859.63;5017610;28;20052;-62
2021/12/19 01:40:33;;;;;;;1.25;0.47;;;;;;;-1.15;100.00;97856.16;5067343;28;20476;-59
2021/12/19 01:43:20;;;;;;;1.10;0.68;;;;;;;-1.14;100.00;97821.47;5072342;28;20101;-71
2021/12/19 01:46:04;;;;;;;1.35;0.80;;;;;;;-1.13;100.00;97831.03;5033037;28;20531;-58
2021/12/19 01:48:49;;;;;;;2.10;1.00;;;;;;;-1.13;100.00;97825.81;5065153;28;20067;-56
2021/12/19 01:51:34;;;;;;;1.45;0.70;;;;;;;-1.15;100.00;97804.16;5078462;28;20086;-55
2021/12/19 01:54:19;;;;;;;1.88;0.90;;;;;;;-1.14;100.00;97797.22;5067042;28;20055;-55
2021/12/19 01:57:04;;;;;;;1.23;0.80;;;;;;;-1.17;100.00;97803.31;5056602;28;20178;-60
2021/12/19 01:59:49;;;;;;;3.00;0.80;;;;;;;-1.15;100.00;97785.97;5050911;28;20135;-67
2021/12/19 02:02:34;;;;;;;1.95;1.10;;;;;;;-1.14;100.00;97755.63;5065693;28;20051;-60
2021/12/19 02:05:19;;;;;;;2.28;1.27;;;;;;;-1.05;100.00;97759.03;5052301;28;20043;-55
2021/12/19 02:08:05;;;;;;;1.95;1.00;;;;;;;-1.04;100.00;97758.16;5047866;28;20554;-56
2021/12/19 02:10:50;;;;;;;1.48;0.80;;;;;;;-0.98;100.00;97737.31;5041662;28;20070;-55
2021/12/19 02:13:34;;;;;;;1.63;0.98;;;;;;;-0.90;100.00;97732.06;5076285;28;20047;-65
2021/12/19 02:16:20;;;;;;;1.45;0.68;;;;;;;-0.99;100.00;97722.59;5060782;28;20140;-58
2021/12/19 02:19:08;;;;;;;1.02;0.73;;;;;;;-0.96;100.00;97726.88;5073459;28;20058;-59
2021/12/19 02:21:53;;;;;;;2.00;0.85;;;;;;;-0.96;100.00;97706.97;5065445;28;20098;-68
2021/12/19 02:24:37;;;;;;;1.63;0.80;;;;;;;-0.96;100.00;97696.56;5086972;28;20059;-58
2021/12/19 02:27:28;;;;;;;1.17;0.75;;;;;;;-0.92;100.00;97680.06;5055113;28;20055;-64
2021/12/19 02:30:14;;;;;;;1.10;0.90;;;;;;;-0.92;100.00;97679.19;5063727;28;20400;-57
2021/12/19 02:33:00;;;;;;;1.73;1.02;;;;;;;-0.99;100.00;97659.34;5050522;28;20140;-59
2021/12/19 02:35:54;;;;;;;2.05;1.10;;;;;;;-0.97;100.00;97642.84;5070085;28;20150;-57
2021/12/19 02:48:10;;;;;;;1.10;0.80;;;;;;;-1.00;100.00;97619.47;5072497;28;20059;-56
2021/12/19 02:50:48;;;;;;;1.00;0.70;;;;;;;-1.09;100.00;97603.94;5050497;28;20118;-58
2021/12/19 02:53:37;;;;;;;1.70;0.95;;;;;;;-1.03;100.00;97585.69;5054970;28;20455;-57
2021/12/19 02:56:21;;;;;;;1.52;0.90;;;;;;;-1.01;100.00;97577.88;5075633;28;20089;-64
2021/12/19 02:59:06;;;;;;;1.77;1.10;;;;;;;-0.97;100.00;97574.34;5082472;28;20043;-53
2021/12/19 03:01:50;;;;;;;2.53;0.65;;;;;;;-1.07;100.00;97570.13;5076382;28;20063;-55
2021/12/19 03:04:35;;;;;;;1.33;0.90;;;;;;;-0.99;100.00;97557.94;5050612;28;20054;-54
2021/12/19 03:07:19;;;;;;;1.33;1.05;;;;;;;-1.01;100.00;97568.34;5073738;28;20063;-53
2021/12/19 03:13:10;;;;;;;1.58;1.17;;;;;;;-1.05;100.00;97522.44;5056726;28;20529;-57
2021/12/19 03:18:58;;;;;;;4.88;2.10;;;;;;;-0.83;100.00;97513.50;5069053;28;20055;-65
2021/12/19 03:21:44;;;;;;;2.72;2.17;;;;;;;-0.91;100.00;97515.34;5082038;28;20051;-63
2021/12/19 03:24:28;;;;;;;3.25;2.20;;;;;;;-0.87;100.00;97501.44;5066177;28;20079;-55
2021/12/19 03:27:13;;;;;;;2.90;2.05;;;;;;;-0.88;100.00;97502.31;5036570;28;20090;-63
2021/12/19 03:29:58;;;;;;;3.30;2.40;;;;;;;-0.79;100.00;97489.19;5074830;28;20617;-65
2021/12/19 03:32:42;;;;;;;;;;;;;;;-0.69;100.00;97489.94;5052068;28;20147;-63
2021/12/19 03:35:29;;;;;;;2.83;1.98;;;;;;;-0.86;100.00;97473.69;5054371;28;19962;-66
2021/12/19 03:38:17;;;;;;;2.40;1.88;;;;;;;-0.71;100.00;97482.16;5070709;28;20051;-58
2021/12/19 03:41:21;;;;;;;3.70;2.15;;;;;;;-0.78;100.00;97472.69;5088841;28;20146;-62
2021/12/19 03:44:06;;;;;;;2.30;1.45;;;;;;;-0.82;100.00;97457.16;5073301;28;20066;-63
2021/12/19 03:46:51;;;;;;;3.22;1.40;;;;;;;-0.87;100.00;97449.41;5069022;28;20140;-61
2021/12/19 03:49:36;;;;;;;1.63;1.25;;;;;;;-0.84;100.00;97438.97;5067834;28;20047;-62
2021/12/19 03:52:21;;;;;;;3.45;1.73;;;;;;;-0.75;100.00;97431.06;5053813;28;20082;-63
2021/12/19 03:55:06;;;;;;;2.20;1.50;;;;;;;-0.79;100.00;97416.38;5073083;28;20173;-60
2021/12/19 03:57:51;;;;;;;3.70;2.20;;;;;;;-0.64;100.00;97407.47;5056964;28;20128;-61
2021/12/19 04:00:36;;;;;;;4.15;2.15;;;;;;;-0.78;100.00;97399.88;5078015;28;20047;-66
2021/12/19 04:03:21;;;;;;;2.58;1.65;;;;;;;-0.71;100.00;97396.31;5073459;28;20043;-60
2021/12/19 04:06:06;;;;;;;2.33;1.60;;;;;;;-0.70;100.00;97382.41;5062857;28;20055;-56
2021/12/19 04:08:51;;;;;;;1.65;1.00;;;;;;;-0.77;100.00;97385.13;5059825;28;20097;-61
2021/12/19 04:11:35;;;;;;;1.70;1.10;;;;;;;-0.77;100.00;97369.53;5065436;28;20132;-60
2021/12/19 04:14:19;;;;;;;1.90;1.30;;;;;;;-0.57;100.00;97359.69;5058564;28;20301;-58
2021/12/19 04:17:04;;;;;;;2.42;1.20;;;;;;;-0.52;100.00;97355.28;5070628;28;20146;-63
2021/12/19 04:19:49;;;;;;;1.85;1.17;;;;;;;-0.48;100.00;97343.94;5085073;28;20047;-58
2021/12/19 04:22:36;;;;;;;1.48;0.88;;;;;;;-0.57;100.00;97351.88;5056085;28;20059;-61
2021/12/19 04:25:21;;;;;;;1.83;0.93;;;;;;;-0.67;100.00;97338.16;5084699;28;20080;-60
2021/12/19 04:28:05;;;;;;;3.22;1.10;;;;;;;-0.79;100.00;97314.94;5085247;28;20050;-64
2021/12/19 04:30:49;;;;;;;1.80;0.90;;;;;;;-0.79;100.00;97316.69;5085431;28;20589;-56
2021/12/19 04:33:36;;;;;;;1.77;1.17;;;;;;;-0.83;100.00;97302.84;5073081;28;20091;-63
2021/12/19 04:36:27;;;;;;;2.22;1.05;;;;;;;-0.65;100.00;97306.91;5079640;28;20065;-62
2021/12/19 04:57:07;;;;;;;2.35;1.20;;;;;;;-0.51;100.00;97264.19;5076524;28;20101;-60
2021/12/19 05:05:56;;;;;;;2.53;1.27;;;;;;;-0.39;100.00;97266.56;5088113;28;20047;-59
2021/12/19 05:14:52;;;;;;;1.40;1.00;;;;;;;-0.18;100.00;97221.09;5023931;28;20409;-64
2021/12/19 05:17:36;;;;;;;1.70;1.00;;;;;;;-0.20;100.00;97215.03;4997521;28;20079;-61
2021/12/19 05:20:25;;;;;;;2.30;1.10;;;;;;;-0.24;100.00;97222.06;5026062;28;20052;-66
2021/12/19 05:23:20;;;;;;;1.85;1.00;;;;;;;-0.23;100.00;97208.16;5018570;28;20056;-61
2021/12/19 05:26:06;;;;;;;1.73;0.88;;;;;;;-0.35;100.00;97199.72;4991300;28;20052;-62
2021/12/19 05:28:52;;;;;;;2.30;0.90;;;;;;;-0.20;100.00;97195.09;5021332;28;20582;-64
2021/12/19 05:31:37;;;;;;;1.98;1.20;;;;;;;-0.15;100.00;97185.44;5016030;28;20179;-70
2021/12/19 05:34:22;;;;;;;2.65;1.00;;;;;;;-0.03;100.00;97187.78;5010383;28;20049;-63
2021/12/19 05:46:18;;;;;;;2.08;1.17;;;;;;;0.19;100.00;97180.41;5072270;28;20086;-60
2021/12/19 05:49:04;;;;;;;3.58;1.00;;;;;;;0.03;100.00;97159.03;5058047;28;20098;-59
2021/12/19 05:51:48;;;;;;;1.90;1.20;;;;;;;-0.10;100.00;97157.59;5039387;28;20198;-62
2021/12/19 05:54:33;;;;;;;2.10;1.00;;;;;;;0.10;100.00;97170.19;5079757;28;20174;-61
2021/12/19 05:57:17;;;;;;;1.65;1.10;;;;;;;0.01;100.00;97171.22;5055426;28;20051;-67
2021/12/19 06:00:06;;;;;;;2.65;1.13;;;;;;;0.28;100.00;97162.00;5069168;28;20504;-60
2021/12/19 06:02:53;;;;;;;1.88;0.90;;;;;;;0.52;100.00;97163.19;5067602;28;20427;-62
2021/12/19 06:05:37;;;;;;;2.60;0.90;;;;;;;0.29;100.00;97140.25;5086979;28;20062;-61
2021/12/19 06:08:22;;;;;;;2.83;0.88;;;;;;;0.46;100.00;97137.25;5056750;28;20178;-63
2021/12/19 06:11:07;;;;;;;3.55;1.35;;;;;;;0.49;100.00;97139.78;5070182;28;20055;-62
2021/12/19 06:13:51;;;;;;;1.85;1.13;;;;;;;0.49;100.00;97135.44;5075632;28;20066;-62
2021/12/19 06:16:36;;;;;;;1.50;1.13;;;;;;;0.59;100.00;97131.72;5084458;28;20051;-65
2021/12/19 06:19:20;;;;;;;1.80;1.00;;;;;;;0.55;100.00;97129.25;5066461;28;20181;-61
2021/12/19 06:22:05;;;;;;;3.43;1.23;;;;;;;0.66;100.00;97122.88;5064538;28;20150;-64
2021/12/19 06:24:49;;;;;;;2.90;1.40;;;;;;;0.95;100.00;97117.81;5076652;28;20309;-65
2021/12/19 06:27:33;;;;;;;3.72;1.45;;;;;;;0.94;100.00;97112.66;5041295;28;20412;-62
2021/12/19 06:30:18;;;;;;;3.15;1.50;;;;;;;0.90;100.00;97097.97;5059073;28;20047;-66
2021/12/19 06:33:03;;;;;;;3.30;1.50;;;;;;;0.60;100.00;97103.94;5066237;28;20565;-63
2021/12/19 06:35:47;;;;;;;2.65;1.48;;;;;;;0.58;100.00;97108.31;5052704;28;20043;-62
2021/12/19 06:38:32;;;;;;;4.00;1.67;;;;;;;0.55;100.00;97105.78;5082260;28;20140;-63
2021/12/19 06:41:16;;;;;;;2.65;1.45;;;;;;;0.78;100.00;97096.50;5080699;28;20550;-72
2021/12/19 06:44:00;;;;;;;4.88;2.40;;;;;;;0.72;100.00;97090.59;5082591;28;20094;-64
2021/12/19 06:46:45;;;;;;;3.88;1.55;;;;;;;0.52;100.00;97083.25;5067021;28;20530;-62
2021/12/19 06:49:30;;;;;;;3.53;1.50;;;;;;;0.81;100.00;97083.41;5080791;28;20054;-61
2021/12/19 06:52:15;;;;;;;3.88;2.10;;;;;;;0.80;100.00;97059.97;5082552;28;20046;-63
2021/12/19 06:54:59;;;;;;;2.33;1.67;;;;;;;0.88;100.00;97069.34;5062094;28;20071;-60
2021/12/19 06:57:45;;;;;;;4.30;1.90;;;;;;;1.07;100.00;97064.50;5055876;28;20169;-61
2021/12/19 07:00:30;;;;;;;2.97;1.50;;;;;;;1.35;100.00;97065.47;5081295;28;20342;-69
2021/12/19 07:03:16;;;;;;;4.07;1.70;;;;;;;1.47;100.00;97065.13;5083887;28;20043;-64
2021/12/19 07:06:01;;;;;;;4.47;1.90;;;;;;;1.36;100.00;97054.13;5039445;28;20518;-62
2021/12/19 07:08:47;;;;;;;2.92;1.50;;;;;;;1.39;100.00;97054.06;5067924;28;20121;-65
2021/12/19 07:11:31;;;;;;;2.38;1.67;;;;;;;1.02;100.00;97040.28;5064789;28;20059;-58
2021/12/19 07:14:16;;;;;;;2.97;1.85;;;;;;;1.10;100.00;97041.78;5074348;28;20579;-56
2021/12/19 07:17:01;;;;;;;3.30;1.92;;;;;;;1.15;100.00;97033.84;5081291;28;20498;-64
2021/12/19 07:19:46;;;;;;;2.60;1.67;;;;;;;1.10;100.00;97026.13;5059938;28;20423;-67
2021/12/19 07:22:31;;;;;;;4.20;1.60;;;;;;;1.05;100.00;97016.72;5081292;28;20052;-58
2021/12/19 07:25:15;;;;;;;3.65;1.80;;;;;;;0.89;100.00;97020.63;5076339;28;20144;-61
2021/12/19 07:28:00;;;;;;;3.88;1.83;;;;;;;0.80;100.00;97003.47;5054368;28;20051;-63
2021/12/19 07:30:45;;;;;;;6.03;2.05;;;;;;;1.23;100.00;97019.66;5081610;28;20133;-58
2021/12/19 07:33:29;;;;;;;3.78;1.90;;;;;;;1.37;100.00;97009.72;5082314;28;20086;-59
2021/12/19 07:36:14;;;;;;;5.00;2.30;;;;;;;1.48;100.00;97019.84;5081469;28;20066;-56
2021/12/19 07:39:05;;;;;;;4.25;2.10;;;;;;;1.67;100.00;97014.06;5082861;28;20062;-63
2021/12/19 07:41:49;;;;;;;3.30;1.90;;;;;;;1.59;100.00;97002.13;5067054;28;20067;-60
2021/12/19 07:44:35;;;;;;;3.40;1.90;;;;;;;1.48;100.00;97005.06;5066731;28;20459;-60
2021/12/19 07:47:19;;;;;;;4.93;2.05;;;;;;;1.58;100.00;97000.44;5063298;28;20357;-58
2021/12/19 07:50:06;;;;;;;3.33;1.83;;;;;;;1.86;100.00;96994.31;5065633;28;20600;-54
2021/12/19 07:52:52;;;;;;;3.67;1.88;;;;;;;1.73;100.00;96994.72;5065153;28;20090;-56
2021/12/19 07:55:38;;;;;;;4.65;2.35;;;;;;;1.50;100.00;96992.81;5064965;28;20172;-64
2021/12/19 07:58:23;;;;;;;3.88;2.10;;;;;;;1.84;100.00;96982.22;5066196;28;20186;-71
2021/12/19 08:01:07;;;;;;;3.08;2.03;;;;;;;1.77;100.00;96985.91;5070399;28;20066;-56
2021/12/19 08:03:52;;;;;;;9.10;4.25;;;;;;;1.80;100.00;96978.84;5082504;28;20113;-59
2021/12/19 08:06:36;;;;;;;4.80;2.55;;;;;;;1.47;100.00;96968.56;5056665;28;20063;-59
2021/12/19 08:09:25;;;;;;;7.15;2.60;;;;;;;1.42;100.00;96976.50;5064993;28;20094;-62
2021/12/19 08:12:09;;;;;;;4.38;2.67;;;;;;;1.40;100.00;96969.63;5050099;28;20071;-58
2021/12/19 08:14:54;;;;;;;4.90;3.05;;;;;;;1.78;100.00;96966.75;5084693;28;20460;-55
2021/12/19 08:17:38;;;;;;;6.72;3.17;;;;;;;1.83;100.00;96972.69;5076095;28;20051;-64
2021/12/19 08:20:24;;;;;;;8.77;3.60;;;;;;;2.05;100.00;96961.53;5082795;28;20090;-52
2021/12/19 08:23:09;;;;;;;6.75;3.55;;;;;;;1.85;100.00;96960.41;5086132;28;20051;-55
2021/12/19 08:25:53;;;;;;;4.82;3.17;;;;;;;1.94;100.00;96960.16;5087138;28;20078;-53
2021/12/19 08:28:39;;;;;;;5.30;2.90;;;;;;;2.08;100.00;96957.94;5086456;28;20063;-59
2021/12/19 08:31:23;;;;;;;5.72;3.15;;;;;;;1.99;100.00;96948.66;5085938;28;20051;-52
2021/12/19 08:34:08;;;;;;;5.68;2.60;;;;;;;1.82;100.00;96947.47;5069698;28;20470;-55
2021/12/19 08:36:54;;;;;;;4.70;2.75;;;;;;;1.82;100.00;96944.88;5082701;28;20153;-62
2021/12/19 08:39:41;;;;;;;4.57;2.70;;;;;;;1.97;100.00;96933.94;5070947;28;20121;-57
2021/12/19 08:42:28;;;;;;;4.25;2.67;;;;;;;2.25;100.00;96943.44;5070367;28;20093;-56
2021/12/19 08:45:12;;;;;;;4.05;2.38;;;;;;;2.10;100.00;96932.66;5085049;28;20100;-54
2021/12/19 08:47:58;;;;;;;4.22;2.63;;;;;;;2.12;100.00;96941.28;5072398;28;20108;-56
2021/12/19 08:50:42;;;;;;;5.25;2.80;;;;;;;2.22;100.00;96935.69;5070676;28;20051;-56
2021/12/19 08:53:27;;;;;;;4.65;2.60;;;;;;;2.23;100.00;96931.34;5084027;28;20063;-57
2021/12/19 08:56:11;;;;;;;5.55;3.00;;;;;;;2.12;100.00;96926.47;5067583;28;20075;-67
2021/12/19 08:58:56;;;;;;;4.22;2.47;;;;;;;2.07;100.00;96915.31;5086069;28;20050;-55
2021/12/19 09:01:41;;;;;;;10.82;3.35;;;;;;;2.07;100.00;96914.44;5066996;28;20515;-54
2021/12/19 09:04:25;;;;;;;5.82;3.50;;;;;;;2.07;100.00;96912.69;5087253;28;20100;-57
2021/12/19 09:07:10;;;;;;;5.65;3.00;;;;;;;2.14;100.00;96908.94;5072528;28;20290;-57
2021/12/19 09:09:54;;;;;;;9.05;3.80;;;;;;;2.39;100.00;96904.66;5085156;28;20055;-56
2021/12/19 09:12:39;;;;;;;7.50;3.65;;;;;;;2.45;100.00;96898.38;5069287;28;20083;-58
2021/12/19 09:15:24;;;;;;;7.32;3.80;;;;;;;2.61;100.00;96895.16;5068658;28;20066;-63
2021/12/19 09:18:09;;;;;;;5.82;3.33;;;;;;;2.68;100.00;96891.41;5084233;28;20182;-68
2021/12/19 09:20:53;;;;;;;5.63;3.58;;;;;;;2.48;100.00;96893.88;5085175;28;20177;-63
2021/12/19 09:23:37;;;;;;;6.78;4.03;;;;;;;2.50;100.00;96891.22;5066245;28;20051;-65
2021/12/19 09:26:22;;;;;;;6.70;3.97;;;;;;;2.67;100.00;96894.94;5086730;28;20143;-68
2021/12/19 09:29:08;;;;;;;9.32;4.15;;;;;;;2.47;100.00;96881.72;5071969;28;20526;-56
2021/12/19 09:31:53;;;;;;;8.13;4.03;;;;;;;2.60;100.00;96874.28;5070821;28;20105;-61
2021/12/19 09:34:37;;;;;;;6.53;4.07;;;;;;;2.45;100.00;96878.28;5084962;28;20058;-62
2021/12/19 09:37:22;;;;;;;8.00;4.25;;;;;;;2.69;100.00;96873.97;5071626;28;20051;-57
2021/12/19 09:40:12;;;;;;;9.15;4.47;;;;;;;2.70;100.00;96875.69;5078863;28;20135;-70
2021/12/19 09:43:01;;;;;;;7.65;4.25;;;;;;;2.68;100.00;96872.25;5071484;28;20042;-68
2021/12/19 09:45:52;;;;;;;8.70;4.50;;;;;;;2.75;100.00;96868.50;5051429;28;20065;-60
2021/12/19 09:48:39;;;;;;;7.78;4.97;;;;;;;2.45;100.00;96862.59;5085207;28;20105;-70
2021/12/19 09:51:24;;;;;;;10.30;5.13;;;;;;;2.22;100.00;96859.91;5084977;28;20082;-65
2021/12/19 09:54:11;;;;;;;9.75;5.50;;;;;;;2.45;100.00;96852.13;5082560;28;20083;-67
2021/12/19 09:56:55;;;;;;;10.60;6.03;;;;;;;2.69;100.00;96855.66;5057896;28;20046;-56
2021/12/19 09:59:40;;;;;;;13.13;6.25;;;;;;;2.36;100.00;96848.97;5068830;28;20070;-60
2021/12/19 10:02:24;;;;;;;8.90;5.67;;;;;;;2.31;100.00;96850.91;5068489;28;20047;-61
2021/12/19 10:05:20;;;;;;;9.38;5.80;;;;;;;2.51;100.00;96843.22;5068193;28;20381;-61
2021/12/19 10:08:04;;;;;;;11.43;6.43;;;;;;;2.73;100.00;96838.97;5081621;28;20062;-64
2021/12/19 10:10:59;;;;;;;9.82;5.70;;;;;;;2.64;100.00;96834.91;5064313;28;20155;-59
2021/12/19 10:13:43;;;;;;;10.90;6.07;;;;;;;2.72;100.00;96830.25;5072329;28;20066;-60
2021/12/19 10:16:30;;;;;;;12.43;6.55;;;;;;;2.62;100.00;96828.03;5066881;28;20051;-67
2021/12/19 10:19:15;;;;;;;10.02;5.82;;;;;;;2.41;100.00;96819.16;5083458;28;20067;-69
2021/12/19 10:22:00;;;;;;;13.75;5.75;;;;;;;2.58;100.00;96811.59;5082979;22;20064;-61
2021/12/19 10:24:45;;;;;;;12.65;6.10;;;;;;;2.47;100.00;96813.75;4995996;28;20060;-56
2021/12/19 10:27:41;;;;;;;10.23;6.05;;;;;;;2.53;100.00;96818.72;5010340;28;20095;-60
2021/12/19 10:30:35;;;;;;;11.05;5.90;;;;;;;2.76;100.00;96808.31;5025440;28;20188;-66
2021/12/19 10:33:23;;;;;;;9.02;5.30;;;;;;;2.66;100.00;96799.09;5012822;28;20084;-60
2021/12/19 10:36:12;;;;;;;11.27;6.10;;;;;;;2.75;100.00;96795.28;5026779;28;20056;-59
2021/12/19 10:39:00;;;;;;;14.60;6.40;;;;;;;3.06;100.00;96796.72;5009278;28;20079;-58
2021/12/19 10:41:58;;;;;;;9.10;5.78;;;;;;;3.24;100.00;96787.31;5024002;28;20112;-61
2021/12/19 10:47:47;;;;;;;16.38;6.80;;;;;;;3.29;100.00;96788.78;5023113;28;20081;-60
2021/12/19 10:50:53;;;;;;;13.32;6.78;;;;;;;3.44;100.00;96790.81;5007961;28;20056;-62
2021/12/19 10:53:42;;;;;;;14.90;6.88;;;;;;;3.16;100.00;96792.81;5023556;28;20153;-64
2021/12/19 10:56:30;;;;;;;13.13;6.70;;;;;;;3.18;100.00;96792.75;5023982;28;20048;-59
2021/12/19 10:59:18;;;;;;;11.70;6.53;;;;;;;3.33;100.00;96793.00;5015897;28;20100;-60
2021/12/19 11:02:03;;;;;;;15.38;7.43;;;;;;;3.01;100.00;96795.16;5024186;28;20075;-67
2021/12/19 11:04:47;;;;;;;17.17;7.30;;;;;;;3.03;100.00;96793.34;5031901;28;20140;-65
2021/12/19 11:07:32;;;;;;;16.88;7.57;;;;;;;3.17;100.00;96791.06;4992858;28;20053;-66
2021/12/19 11:10:30;;;;;;;14.98;7.50;;;;;;;3.26;100.00;96786.31;4995017;28;20115;-56
2021/12/19 11:13:18;;;;;;;13.95;7.60;;;;;;;3.19;100.00;96795.31;5020921;28;20051;-59
2021/12/19 11:16:05;;;;;;;16.95;8.15;;;;;;;3.23;100.00;96783.81;5010058;28;20223;-57
2021/12/19 11:18:51;;;;;;;15.05;6.97;;;;;;;3.24;100.00;96789.91;5023149;28;20052;-59
2021/12/19 11:21:37;;;;;;;16.10;7.03;;;;;;;3.09;100.00;96786.09;5007060;28;20096;-63
2021/12/19 11:24:24;;;;;;;17.52;7.03;;;;;;;3.18;100.00;96783.16;5006656;28;20579;-60
2021/12/19 11:27:09;;;;;;;12.60;7.00;;;;;;;3.36;100.00;96778.97;5019544;28;20464;-59
2021/12/19 11:29:56;;;;;;;14.50;7.15;;;;;;;3.52;100.00;96780.06;5022930;28;20088;-65
2021/12/19 11:32:59;;;;;;;14.32;6.68;;;;;;;3.58;100.00;96782.41;5024150;28;20100;-65
2021/12/19 11:35:47;;;;;;;13.32;7.65;;;;;;;3.63;100.00;96777.84;5019317;28;20538;-67
2021/12/19 11:38:36;;;;;;;15.20;6.90;;;;;;;3.80;100.00;96780.66;5029183;28;20132;-60
2021/12/19 11:41:21;;;;;;;17.38;8.13;;;;;;;3.67;100.00;96779.41;5029381;28;20040;-70
2021/12/19 11:44:09;;;;;;;16.15;8.27;;;;;;;3.47;100.00;96777.63;5042065;28;20684;-65
2021/12/19 11:46:55;;;;;;;15.88;7.80;;;;;;;3.29;100.00;96778.31;5044912;28;20110;-64
2021/12/19 11:49:40;;;;;;;20.88;8.85;;;;;;;3.14;100.00;96765.88;5044826;28;20075;-60
2021/12/19 11:52:30;;;;;;;18.02;8.13;;;;;;;3.19;100.00;96774.38;5029153;28;20574;-57
2021/12/19 11:55:14;;;;;;;20.30;8.18;;;;;;;3.05;100.00;96781.06;5039486;28;20052;-67
2021/12/19 11:58:08;;;;;;;15.55;8.00;;;;;;;3.10;100.00;96779.97;5000850;28;20048;-65
2021/12/19 12:01:08;;;;;;;16.53;6.67;;;;;;;3.10;100.00;96776.50;5017428;28;20136;-56
2021/12/19 12:03:59;;;;;;;15.70;7.50;;;;;;;2.89;100.00;96782.56;5045477;28;20286;-59
2021/12/19 12:06:56;;;;;;;29.25;13.50;;;;;;;2.89;100.00;96786.00;5030443;28;20438;-63
2021/12/19 12:09:55;;;;;;;14.88;6.63;;;;;;;3.16;100.00;96781.47;5031350;28;20496;-74
2021/12/19 12:12:50;;;;;;;18.98;7.13;;;;;;;3.08;100.00;96784.41;5048345;28;20067;-57
2021/12/19 12:15:35;;;;;;;14.75;6.85;;;;;;;3.15;100.00;96775.41;5048748;28;20400;-59
2021/12/19 12:18:32;;;;;;;10.80;5.63;;;;;;;3.31;100.00;96773.03;5029746;28;20056;-62
2021/12/19 12:24:18;;;;;;;11.05;5.13;;;;;;;3.15;100.00;96771.94;5047664;28;20064;-58
2021/12/19 12:27:05;;;;;;;8.48;4.82;;;;;;;2.84;100.00;96764.41;5045289;28;20115;-63
2021/12/19 12:29:50;;;;;;;13.68;5.10;;;;;;;2.72;100.00;96769.22;5032753;28;20118;-57
2021/12/19 12:32:35;;;;;;;11.57;4.35;;;;;;;2.62;100.00;96768.75;5028644;28;20064;-62
2021/12/19 12:35:21;;;;;;;9.85;4.28;;;;;;;2.58;100.00;96759.31;5011757;28;20106;-72
2021/12/19 12:38:08;;;;;;;9.10;3.80;;;;;;;2.48;100.00;96764.91;5030153;28;20110;-61
2021/12/19 12:41:06;;;;;;;9.10;3.90;;;;;;;2.50;100.00;96769.16;5030752;28;20055;-62
2021/12/19 12:43:51;;;;;;;10.23;5.40;;;;;;;2.42;100.00;96770.38;5046518;28;20083;-64
2021/12/19 12:46:37;;;;;;;14.95;7.00;;;;;;;2.44;100.00;96774.63;5047995;28;20564;-61
2021/12/19 12:49:32;;;;;;;16.27;8.07;;;;;;;2.41;100.00;96777.34;5045070;28;20095;-64
2021/12/19 12:52:20;;;;;;;10.35;7.10;;;;;;;2.36;100.00;96766.19;5046225;28;20083;-61
2021/12/19 12:55:05;;;;;;;15.73;7.38;;;;;;;2.47;100.00;96769.28;5047149;28;20059;-61
2021/12/19 12:57:49;;;;;;;12.07;6.47;;;;;;;2.44;100.00;96769.41;5037876;28;20067;-68
2021/12/19 13:00:34;;;;;;;16.90;7.05;;;;;;;2.31;100.00;96762.03;5045581;28;20048;-56
2021/12/19 13:03:28;;;;;;;11.05;5.60;;;;;;;2.30;100.00;96762.97;5045492;28;20051;-60
2021/12/19 13:06:13;;;;;;;12.05;6.05;;;;;;;2.20;100.00;96761.56;5032889;28;20048;-54
2021/12/19 13:09:22;;;;;;;13.13;6.55;;;;;;;2.33;100.00;96762.88;5045108;28;20084;-67
2021/12/19 13:12:17;;;;;;;13.10;5.32;;;;;;;2.28;100.00;96754.31;5031629;28;20044;-58
2021/12/19 13:15:12;;;;;;;10.82;5.03;;;;;;;2.35;100.00;96772.34;5044796;28;20585;-60
2021/12/19 13:17:56;;;;;;;11.37;5.33;;;;;;;2.32;100.00;96772.44;5059980;28;20218;-62
2021/12/19 13:20:41;;;;;;;17.95;5.50;;;;;;;2.27;100.00;96761.31;5031673;28;20734;-61
2021/12/19 13:23:25;;;;;;;11.98;6.20;;;;;;;2.25;100.00;96775.34;5047382;28;20063;-73
2021/12/19 13:26:10;;;;;;;10.13;5.30;;;;;;;2.33;100.00;96773.31;5031771;28;20518;-60
2021/12/19 13:28:54;;;;;;;15.70;6.20;;;;;;;2.33;100.00;96762.88;5028537;28;20068;-57
2021/12/19 13:31:39;;;;;;;10.90;5.07;;;;;;;2.50;100.00;96773.56;5046010;28;20137;-58
2021/12/19 13:34:38;;;;;;;8.37;4.43;;;;;;;2.89;100.00;96774.72;5044810;28;20569;-60
2021/12/19 13:37:23;;;;;;;11.10;4.72;;;;;;;3.11;100.00;96767.72;5046239;28;20399;-73
2021/12/19 13:40:12;;;;;;;10.25;5.20;;;;;;;2.97;100.00;96765.63;5032033;28;20052;-60
2021/12/19 13:43:21;;;;;;;11.48;5.07;;;;;;;3.09;100.00;96770.41;5020244;28;20094;-58
2021/12/19 13:46:10;;;;;;;13.75;4.78;;;;;;;2.95;100.00;96758.75;5032200;28;20105;-60
2021/12/19 13:48:55;;;;;;;8.52;4.50;;;;;;;3.15;100.00;96758.84;5047352;28;20076;-60
2021/12/19 13:51:39;;;;;;;10.70;5.10;;;;;;;3.32;100.00;96759.88;5032622;28;20121;-52
2021/12/19 13:54:28;;;;;;;11.52;4.70;;;;;;;3.42;100.00;96742.06;5047433;28;20075;-73
2021/12/19 13:57:22;;;;;;;11.77;4.53;;;;;;;3.35;100.00;96757.16;5046500;28;20056;-57
2021/12/19 14:00:11;;;;;;;13.13;5.18;;;;;;;3.43;100.00;96752.47;5046765;28;20080;-55
2021/12/19 14:02:56;;;;;;;17.30;5.50;;;;;;;3.23;100.00;96756.78;5047188;28;20047;-56